Terminal Aerodrome Forecast
Issued by NWS

Home | Current Version | Previous Version | Text Only | Print | Product List | Glossary On
Versions: 1 2 3 4 5 6 7 8 9 10 11 12 13 14 15 16 17 18 19
000
FTUS44 KTSA 010520
TAFXNA
TAF
KXNA 010520Z 0106/0206 25005KT P6SM SKC
     FM010800 VRB03KT 3SM BR SCT005
      TEMPO 0109/0113 1SM BR BKN005
     FM011400 30008KT P6SM SCT250
     FM020000 33005KT P6SM BKN250=

USA.gov is the U.S. government's official web portal to all federal, state and local government web resources and services.